sensor_id;sensor_type;location;lat;lon;timestamp;P1;durP1;ratioP1;P2;durP2;ratioP2
4963;SDS011;2497;47.410;9.740;2023-05-25T00:00:06;31.27;;;11.73;;
4963;SDS011;2497;47.410;9.740;2023-05-25T00:02:34;37.27;;;13.30;;
4963;SDS011;2497;47.410;9.740;2023-05-25T00:05:01;30.77;;;12.80;;
4963;SDS011;2497;47.410;9.740;2023-05-25T00:07:28;27.60;;;12.50;;
4963;SDS011;2497;47.410;9.740;2023-05-25T00:09:57;32.70;;;12.90;;
4963;SDS011;2497;47.410;9.740;2023-05-25T00:12:24;32.13;;;14.83;;
4963;SDS011;2497;47.410;9.740;2023-05-25T00:14:51;31.07;;;12.77;;
4963;SDS011;2497;47.410;9.740;2023-05-25T00:17:18;33.03;;;14.70;;
4963;SDS011;2497;47.410;9.740;2023-05-25T00:19:45;30.13;;;13.70;;
4963;SDS011;2497;47.410;9.740;2023-05-25T00:22:13;30.13;;;12.33;;
4963;SDS011;2497;47.410;9.740;2023-05-25T00:24:40;30.17;;;14.60;;
4963;SDS011;2497;47.410;9.740;2023-05-25T00:27:08;29.17;;;13.87;;
4963;SDS011;2497;47.410;9.740;2023-05-25T00:29:35;34.47;;;14.00;;
4963;SDS011;2497;47.410;9.740;2023-05-25T00:32:02;32.60;;;13.93;;
4963;SDS011;2497;47.410;9.740;2023-05-25T00:34:30;34.40;;;14.90;;
4963;SDS011;2497;47.410;9.740;2023-05-25T00:36:57;36.43;;;13.27;;
4963;SDS011;2497;47.410;9.740;2023-05-25T00:39:24;30.37;;;13.13;;
4963;SDS011;2497;47.410;9.740;2023-05-25T00:41:52;36.20;;;14.80;;
4963;SDS011;2497;47.410;9.740;2023-05-25T00:44:23;34.03;;;14.80;;
4963;SDS011;2497;47.410;9.740;2023-05-25T00:46:50;42.23;;;14.73;;
4963;SDS011;2497;47.410;9.740;2023-05-25T00:49:18;41.43;;;15.93;;
4963;SDS011;2497;47.410;9.740;2023-05-25T00:51:47;33.90;;;14.00;;
4963;SDS011;2497;47.410;9.740;2023-05-25T00:54:17;32.27;;;15.90;;
4963;SDS011;2497;47.410;9.740;2023-05-25T00:56:45;35.03;;;15.23;;
4963;SDS011;2497;47.410;9.740;2023-05-25T00:59:16;29.90;;;14.20;;
4963;SDS011;2497;47.410;9.740;2023-05-25T01:01:51;37.83;;;14.00;;
4963;SDS011;2497;47.410;9.740;2023-05-25T01:04:20;29.90;;;14.60;;
4963;SDS011;2497;47.410;9.740;2023-05-25T01:06:48;46.20;;;15.10;;
4963;SDS011;2497;47.410;9.740;2023-05-25T01:09:17;35.50;;;14.10;;
4963;SDS011;2497;47.410;9.740;2023-05-25T01:11:47;33.50;;;16.03;;
4963;SDS011;2497;47.410;9.740;2023-05-25T01:14:17;28.40;;;14.90;;
4963;SDS011;2497;47.410;9.740;2023-05-25T01:16:46;39.13;;;14.80;;
4963;SDS011;2497;47.410;9.740;2023-05-25T01:19:15;36.30;;;14.17;;
4963;SDS011;2497;47.410;9.740;2023-05-25T01:21:45;34.37;;;15.40;;
4963;SDS011;2497;47.410;9.740;2023-05-25T01:24:19;36.53;;;15.27;;
4963;SDS011;2497;47.410;9.740;2023-05-25T01:26:53;40.57;;;17.07;;
4963;SDS011;2497;47.410;9.740;2023-05-25T01:29:24;32.10;;;14.20;;
4963;SDS011;2497;47.410;9.740;2023-05-25T01:31:53;33.97;;;13.87;;
4963;SDS011;2497;47.410;9.740;2023-05-25T01:34:23;38.80;;;14.50;;
4963;SDS011;2497;47.410;9.740;2023-05-25T01:36:53;32.87;;;14.07;;
4963;SDS011;2497;47.410;9.740;2023-05-25T01:39:20;33.30;;;14.03;;
4963;SDS011;2497;47.410;9.740;2023-05-25T01:41:48;37.40;;;16.30;;
4963;SDS011;2497;47.410;9.740;2023-05-25T01:44:16;39.70;;;14.90;;
4963;SDS011;2497;47.410;9.740;2023-05-25T01:46:44;34.83;;;14.83;;
4963;SDS011;2497;47.410;9.740;2023-05-25T01:49:20;33.80;;;14.80;;
4963;SDS011;2497;47.410;9.740;2023-05-25T01:51:55;42.37;;;15.57;;
4963;SDS011;2497;47.410;9.740;2023-05-25T01:54:32;41.87;;;15.77;;
4963;SDS011;2497;47.410;9.740;2023-05-25T01:57:02;34.83;;;15.13;;
4963;SDS011;2497;47.410;9.740;2023-05-25T01:59:33;36.73;;;16.03;;
4963;SDS011;2497;47.410;9.740;2023-05-25T02:02:01;37.63;;;15.73;;
4963;SDS011;2497;47.410;9.740;2023-05-25T02:04:30;36.53;;;16.50;;
4963;SDS011;2497;47.410;9.740;2023-05-25T02:06:59;34.07;;;16.43;;
4963;SDS011;2497;47.410;9.740;2023-05-25T02:09:28;33.73;;;15.97;;
4963;SDS011;2497;47.410;9.740;2023-05-25T02:11:55;45.70;;;15.87;;
4963;SDS011;2497;47.410;9.740;2023-05-25T02:14:22;46.97;;;17.53;;
4963;SDS011;2497;47.410;9.740;2023-05-25T02:16:49;28.97;;;14.80;;
4963;SDS011;2497;47.410;9.740;2023-05-25T02:19:16;38.50;;;16.50;;
4963;SDS011;2497;47.410;9.740;2023-05-25T02:21:44;33.13;;;15.60;;
4963;SDS011;2497;47.410;9.740;2023-05-25T02:24:12;37.40;;;15.57;;
4963;SDS011;2497;47.410;9.740;2023-05-25T02:26:39;32.00;;;15.23;;
4963;SDS011;2497;47.410;9.740;2023-05-25T02:29:06;35.47;;;16.10;;
4963;SDS011;2497;47.410;9.740;2023-05-25T02:31:33;45.60;;;17.80;;
4963;SDS011;2497;47.410;9.740;2023-05-25T02:34:00;44.00;;;17.57;;
4963;SDS011;2497;47.410;9.740;2023-05-25T02:36:27;35.60;;;15.13;;
4963;SDS011;2497;47.410;9.740;2023-05-25T02:38:55;38.87;;;16.73;;
4963;SDS011;2497;47.410;9.740;2023-05-25T02:41:24;41.77;;;16.07;;
4963;SDS011;2497;47.410;9.740;2023-05-25T02:43:51;34.30;;;15.40;;
4963;SDS011;2497;47.410;9.740;2023-05-25T02:46:18;35.90;;;15.97;;
4963;SDS011;2497;47.410;9.740;2023-05-25T02:48:46;34.30;;;15.33;;
4963;SDS011;2497;47.410;9.740;2023-05-25T02:51:14;41.77;;;15.40;;
4963;SDS011;2497;47.410;9.740;2023-05-25T02:53:41;43.87;;;17.03;;
4963;SDS011;2497;47.410;9.740;2023-05-25T02:56:08;37.80;;;16.60;;
4963;SDS011;2497;47.410;9.740;2023-05-25T02:58:36;36.97;;;16.40;;
4963;SDS011;2497;47.410;9.740;2023-05-25T03:01:04;40.17;;;14.90;;
4963;SDS011;2497;47.410;9.740;2023-05-25T03:03:34;40.23;;;16.43;;
4963;SDS011;2497;47.410;9.740;2023-05-25T03:06:01;32.83;;;15.70;;
4963;SDS011;2497;47.410;9.740;2023-05-25T03:08:29;45.40;;;16.30;;
4963;SDS011;2497;47.410;9.740;2023-05-25T03:10:56;40.67;;;17.40;;
4963;SDS011;2497;47.410;9.740;2023-05-25T03:13:23;34.13;;;16.70;;
4963;SDS011;2497;47.410;9.740;2023-05-25T03:15:52;36.37;;;15.23;;
4963;SDS011;2497;47.410;9.740;2023-05-25T03:18:19;44.07;;;16.80;;
4963;SDS011;2497;47.410;9.740;2023-05-25T03:20:46;34.40;;;13.63;;
4963;SDS011;2497;47.410;9.740;2023-05-25T03:23:13;32.80;;;14.70;;
4963;SDS011;2497;47.410;9.740;2023-05-25T03:25:40;40.20;;;15.77;;
4963;SDS011;2497;47.410;9.740;2023-05-25T03:28:08;31.73;;;15.40;;
4963;SDS011;2497;47.410;9.740;2023-05-25T03:30:35;37.90;;;16.20;;
4963;SDS011;2497;47.410;9.740;2023-05-25T03:33:03;41.70;;;17.27;;
4963;SDS011;2497;47.410;9.740;2023-05-25T03:35:30;48.43;;;18.97;;
4963;SDS011;2497;47.410;9.740;2023-05-25T03:37:57;45.40;;;17.23;;
4963;SDS011;2497;47.410;9.740;2023-05-25T03:40:24;41.50;;;15.77;;
4963;SDS011;2497;47.410;9.740;2023-05-25T03:42:51;44.73;;;18.93;;
4963;SDS011;2497;47.410;9.740;2023-05-25T03:45:18;35.07;;;16.13;;
4963;SDS011;2497;47.410;9.740;2023-05-25T03:47:45;37.50;;;16.50;;
4963;SDS011;2497;47.410;9.740;2023-05-25T03:50:17;38.77;;;15.90;;
4963;SDS011;2497;47.410;9.740;2023-05-25T03:52:44;47.60;;;18.33;;
4963;SDS011;2497;47.410;9.740;2023-05-25T03:55:11;44.70;;;19.07;;
4963;SDS011;2497;47.410;9.740;2023-05-25T03:57:39;44.30;;;19.40;;
4963;SDS011;2497;47.410;9.740;2023-05-25T04:00:06;40.90;;;17.13;;
4963;SDS011;2497;47.410;9.740;2023-05-25T04:02:35;41.17;;;16.40;;
4963;SDS011;2497;47.410;9.740;2023-05-25T04:05:02;39.67;;;16.30;;
4963;SDS011;2497;47.410;9.740;2023-05-25T04:07:30;38.33;;;15.00;;
4963;SDS011;2497;47.410;9.740;2023-05-25T04:09:57;34.43;;;15.50;;
4963;SDS011;2497;47.410;9.740;2023-05-25T04:12:25;51.87;;;16.63;;
4963;SDS011;2497;47.410;9.740;2023-05-25T04:14:52;28.73;;;15.90;;
4963;SDS011;2497;47.410;9.740;2023-05-25T04:17:20;32.97;;;15.20;;
4963;SDS011;2497;47.410;9.740;2023-05-25T04:19:49;46.80;;;18.10;;
4963;SDS011;2497;47.410;9.740;2023-05-25T04:22:16;40.60;;;15.67;;
4963;SDS011;2497;47.410;9.740;2023-05-25T04:24:44;30.83;;;14.10;;
4963;SDS011;2497;47.410;9.740;2023-05-25T04:27:11;31.63;;;14.10;;
4963;SDS011;2497;47.410;9.740;2023-05-25T04:29:39;33.50;;;16.30;;
4963;SDS011;2497;47.410;9.740;2023-05-25T04:32:07;48.07;;;18.80;;
4963;SDS011;2497;47.410;9.740;2023-05-25T04:34:34;32.07;;;15.70;;
4963;SDS011;2497;47.410;9.740;2023-05-25T04:37:01;41.40;;;16.97;;
4963;SDS011;2497;47.410;9.740;2023-05-25T04:39:32;40.53;;;16.00;;
4963;SDS011;2497;47.410;9.740;2023-05-25T04:42:01;33.87;;;16.73;;
4963;SDS011;2497;47.410;9.740;2023-05-25T04:44:30;35.77;;;15.30;;
4963;SDS011;2497;47.410;9.740;2023-05-25T04:46:57;34.30;;;16.23;;
4963;SDS011;2497;47.410;9.740;2023-05-25T04:49:25;29.13;;;14.13;;
4963;SDS011;2497;47.410;9.740;2023-05-25T04:51:52;44.97;;;15.97;;
4963;SDS011;2497;47.410;9.740;2023-05-25T04:54:20;28.37;;;14.13;;
4963;SDS011;2497;47.410;9.740;2023-05-25T04:56:47;35.67;;;16.10;;
4963;SDS011;2497;47.410;9.740;2023-05-25T04:59:15;38.17;;;16.27;;
4963;SDS011;2497;47.410;9.740;2023-05-25T05:01:42;40.57;;;14.87;;
4963;SDS011;2497;47.410;9.740;2023-05-25T05:04:09;34.73;;;15.93;;
4963;SDS011;2497;47.410;9.740;2023-05-25T05:08:52;38.30;;;17.33;;
4963;SDS011;2497;47.410;9.740;2023-05-25T05:09:35;41.93;;;16.77;;
4963;SDS011;2497;47.410;9.740;2023-05-25T05:12:03;36.40;;;15.87;;
4963;SDS011;2497;47.410;9.740;2023-05-25T05:14:32;38.20;;;16.00;;
4963;SDS011;2497;47.410;9.740;2023-05-25T05:17:01;43.40;;;15.20;;
4963;SDS011;2497;47.410;9.740;2023-05-25T05:19:28;31.77;;;15.50;;
4963;SDS011;2497;47.410;9.740;2023-05-25T05:21:57;36.53;;;15.10;;
4963;SDS011;2497;47.410;9.740;2023-05-25T05:24:24;38.03;;;15.67;;
4963;SDS011;2497;47.410;9.740;2023-05-25T05:26:51;30.53;;;16.37;;
4963;SDS011;2497;47.410;9.740;2023-05-25T05:29:20;28.57;;;14.40;;
4963;SDS011;2497;47.410;9.740;2023-05-25T05:31:49;31.30;;;15.27;;
4963;SDS011;2497;47.410;9.740;2023-05-25T05:34:19;31.90;;;14.87;;
4963;SDS011;2497;47.410;9.740;2023-05-25T05:36:48;29.40;;;15.23;;
4963;SDS011;2497;47.410;9.740;2023-05-25T05:39:15;30.43;;;14.30;;
4963;SDS011;2497;47.410;9.740;2023-05-25T05:41:42;30.73;;;13.63;;
4963;SDS011;2497;47.410;9.740;2023-05-25T05:44:09;30.73;;;13.40;;
4963;SDS011;2497;47.410;9.740;2023-05-25T05:46:36;30.17;;;12.80;;
4963;SDS011;2497;47.410;9.740;2023-05-25T05:49:15;27.00;;;13.77;;
4963;SDS011;2497;47.410;9.740;2023-05-25T05:51:42;31.80;;;13.67;;
4963;SDS011;2497;47.410;9.740;2023-05-25T05:54:10;32.63;;;14.07;;
4963;SDS011;2497;47.410;9.740;2023-05-25T05:56:39;27.50;;;13.33;;
4963;SDS011;2497;47.410;9.740;2023-05-25T05:59:09;27.50;;;12.67;;
4963;SDS011;2497;47.410;9.740;2023-05-25T06:01:38;35.80;;;13.30;;
4963;SDS011;2497;47.410;9.740;2023-05-25T06:04:10;30.03;;;12.73;;
4963;SDS011;2497;47.410;9.740;2023-05-25T06:06:39;25.83;;;12.17;;
4963;SDS011;2497;47.410;9.740;2023-05-25T06:09:09;25.60;;;12.13;;
4963;SDS011;2497;47.410;9.740;2023-05-25T06:11:39;29.43;;;11.93;;
4963;SDS011;2497;47.410;9.740;2023-05-25T06:14:14;28.20;;;11.60;;
4963;SDS011;2497;47.410;9.740;2023-05-25T06:16:41;22.80;;;11.27;;
4963;SDS011;2497;47.410;9.740;2023-05-25T06:19:10;26.10;;;10.93;;
4963;SDS011;2497;47.410;9.740;2023-05-25T06:21:38;21.40;;;10.43;;
4963;SDS011;2497;47.410;9.740;2023-05-25T06:24:05;24.03;;;11.77;;
4963;SDS011;2497;47.410;9.740;2023-05-25T06:26:38;24.93;;;10.80;;
4963;SDS011;2497;47.410;9.740;2023-05-25T06:29:05;30.33;;;10.20;;
4963;SDS011;2497;47.410;9.740;2023-05-25T06:31:32;18.70;;;10.90;;
4963;SDS011;2497;47.410;9.740;2023-05-25T06:34:00;30.83;;;12.17;;
4963;SDS011;2497;47.410;9.740;2023-05-25T06:36:30;18.73;;;11.10;;
4963;SDS011;2497;47.410;9.740;2023-05-25T06:38:57;26.87;;;11.43;;
4963;SDS011;2497;47.410;9.740;2023-05-25T06:41:28;23.67;;;12.87;;
4963;SDS011;2497;47.410;9.740;2023-05-25T06:44:13;19.17;;;10.60;;
4963;SDS011;2497;47.410;9.740;2023-05-25T06:46:40;22.07;;;12.17;;
4963;SDS011;2497;47.410;9.740;2023-05-25T06:49:07;24.20;;;12.47;;
4963;SDS011;2497;47.410;9.740;2023-05-25T06:51:36;26.63;;;11.60;;
4963;SDS011;2497;47.410;9.740;2023-05-25T06:54:06;23.73;;;11.73;;
4963;SDS011;2497;47.410;9.740;2023-05-25T06:56:35;21.93;;;10.83;;
4963;SDS011;2497;47.410;9.740;2023-05-25T06:59:03;23.33;;;10.43;;
4963;SDS011;2497;47.410;9.740;2023-05-25T07:01:30;15.73;;;8.30;;
4963;SDS011;2497;47.410;9.740;2023-05-25T07:03:57;19.17;;;9.40;;
4963;SDS011;2497;47.410;9.740;2023-05-25T07:06:27;18.07;;;10.40;;
4963;SDS011;2497;47.410;9.740;2023-05-25T07:08:59;18.10;;;9.53;;
4963;SDS011;2497;47.410;9.740;2023-05-25T07:11:26;13.60;;;7.30;;
4963;SDS011;2497;47.410;9.740;2023-05-25T07:13:58;15.67;;;7.63;;
4963;SDS011;2497;47.410;9.740;2023-05-25T07:16:25;10.60;;;6.13;;
4963;SDS011;2497;47.410;9.740;2023-05-25T07:18:52;9.30;;;5.67;;
4963;SDS011;2497;47.410;9.740;2023-05-25T07:21:19;14.30;;;5.93;;
4963;SDS011;2497;47.410;9.740;2023-05-25T07:23:46;10.97;;;6.40;;
4963;SDS011;2497;47.410;9.740;2023-05-25T07:26:21;11.80;;;6.60;;
4963;SDS011;2497;47.410;9.740;2023-05-25T07:28:51;14.30;;;6.90;;
4963;SDS011;2497;47.410;9.740;2023-05-25T07:31:21;10.97;;;6.97;;
4963;SDS011;2497;47.410;9.740;2023-05-25T07:33:49;11.40;;;6.30;;
4963;SDS011;2497;47.410;9.740;2023-05-25T07:36:17;13.43;;;7.60;;
4963;SDS011;2497;47.410;9.740;2023-05-25T07:38:45;13.30;;;7.43;;
4963;SDS011;2497;47.410;9.740;2023-05-25T07:41:12;15.23;;;6.40;;
4963;SDS011;2497;47.410;9.740;2023-05-25T07:43:43;12.43;;;6.50;;
4963;SDS011;2497;47.410;9.740;2023-05-25T07:46:13;14.73;;;6.10;;
4963;SDS011;2497;47.410;9.740;2023-05-25T07:48:43;13.70;;;6.50;;
4963;SDS011;2497;47.410;9.740;2023-05-25T07:51:15;11.30;;;6.50;;
4963;SDS011;2497;47.410;9.740;2023-05-25T07:53:52;11.20;;;6.80;;
4963;SDS011;2497;47.410;9.740;2023-05-25T07:56:22;13.17;;;6.47;;
4963;SDS011;2497;47.410;9.740;2023-05-25T07:58:52;10.57;;;5.60;;
4963;SDS011;2497;47.410;9.740;2023-05-25T08:01:19;10.60;;;5.60;;
4963;SDS011;2497;47.410;9.740;2023-05-25T08:03:47;9.37;;;5.40;;
4963;SDS011;2497;47.410;9.740;2023-05-25T08:06:16;8.03;;;5.60;;
4963;SDS011;2497;47.410;9.740;2023-05-25T08:08:43;12.73;;;5.17;;
4963;SDS011;2497;47.410;9.740;2023-05-25T08:11:13;10.20;;;4.80;;
4963;SDS011;2497;47.410;9.740;2023-05-25T08:13:41;11.43;;;5.33;;
4963;SDS011;2497;47.410;9.740;2023-05-25T08:16:11;7.97;;;5.00;;
4963;SDS011;2497;47.410;9.740;2023-05-25T08:18:38;11.73;;;5.00;;
4963;SDS011;2497;47.410;9.740;2023-05-25T08:21:19;8.57;;;4.80;;
4963;SDS011;2497;47.410;9.740;2023-05-25T08:23:50;9.80;;;5.00;;
4963;SDS011;2497;47.410;9.740;2023-05-25T08:26:18;9.73;;;5.70;;
4963;SDS011;2497;47.410;9.740;2023-05-25T08:28:47;9.13;;;5.00;;
4963;SDS011;2497;47.410;9.740;2023-05-25T08:31:21;6.73;;;4.33;;
4963;SDS011;2497;47.410;9.740;2023-05-25T08:33:48;8.97;;;4.97;;
4963;SDS011;2497;47.410;9.740;2023-05-25T08:36:15;10.97;;;5.00;;
4963;SDS011;2497;47.410;9.740;2023-05-25T08:38:49;8.83;;;5.27;;
4963;SDS011;2497;47.410;9.740;2023-05-25T08:41:16;10.30;;;4.90;;
4963;SDS011;2497;47.410;9.740;2023-05-25T08:43:46;8.10;;;4.30;;
4963;SDS011;2497;47.410;9.740;2023-05-25T08:46:14;9.30;;;4.77;;
4963;SDS011;2497;47.410;9.740;2023-05-25T08:48:53;8.57;;;4.80;;
4963;SDS011;2497;47.410;9.740;2023-05-25T08:51:26;11.00;;;4.80;;
4963;SDS011;2497;47.410;9.740;2023-05-25T08:53:56;9.40;;;5.10;;
4963;SDS011;2497;47.410;9.740;2023-05-25T08:56:32;6.03;;;4.10;;
4963;SDS011;2497;47.410;9.740;2023-05-25T08:59:11;7.87;;;4.40;;
4963;SDS011;2497;47.410;9.740;2023-05-25T09:01:45;8.53;;;4.30;;
4963;SDS011;2497;47.410;9.740;2023-05-25T09:04:15;8.20;;;4.80;;
4963;SDS011;2497;47.410;9.740;2023-05-25T09:06:43;8.90;;;4.27;;
4963;SDS011;2497;47.410;9.740;2023-05-25T09:09:12;8.13;;;4.80;;
4963;SDS011;2497;47.410;9.740;2023-05-25T09:11:39;6.23;;;4.07;;
4963;SDS011;2497;47.410;9.740;2023-05-25T09:14:08;5.07;;;3.43;;
4963;SDS011;2497;47.410;9.740;2023-05-25T09:16:36;6.77;;;4.00;;
4963;SDS011;2497;47.410;9.740;2023-05-25T09:19:05;7.07;;;4.03;;
4963;SDS011;2497;47.410;9.740;2023-05-25T09:21:38;10.47;;;4.70;;
4963;SDS011;2497;47.410;9.740;2023-05-25T09:24:07;8.97;;;4.83;;
4963;SDS011;2497;47.410;9.740;2023-05-25T09:26:37;7.80;;;4.80;;
4963;SDS011;2497;47.410;9.740;2023-05-25T09:29:16;9.60;;;4.27;;
4963;SDS011;2497;47.410;9.740;2023-05-25T09:31:43;9.43;;;4.50;;
4963;SDS011;2497;47.410;9.740;2023-05-25T09:34:12;9.33;;;5.27;;
4963;SDS011;2497;47.410;9.740;2023-05-25T09:36:41;9.40;;;4.60;;
4963;SDS011;2497;47.410;9.740;2023-05-25T09:39:09;8.70;;;4.73;;
4963;SDS011;2497;47.410;9.740;2023-05-25T09:41:37;5.63;;;4.30;;
4963;SDS011;2497;47.410;9.740;2023-05-25T09:44:06;6.50;;;4.10;;
4963;SDS011;2497;47.410;9.740;2023-05-25T09:46:35;4.90;;;4.13;;
4963;SDS011;2497;47.410;9.740;2023-05-25T09:49:03;5.13;;;3.80;;
4963;SDS011;2497;47.410;9.740;2023-05-25T09:51:34;7.23;;;4.13;;
4963;SDS011;2497;47.410;9.740;2023-05-25T09:54:02;5.30;;;4.00;;
4963;SDS011;2497;47.410;9.740;2023-05-25T09:56:31;7.57;;;4.10;;
4963;SDS011;2497;47.410;9.740;2023-05-25T09:58:58;7.47;;;4.50;;
4963;SDS011;2497;47.410;9.740;2023-05-25T10:01:31;7.87;;;4.80;;
4963;SDS011;2497;47.410;9.740;2023-05-25T10:03:58;6.13;;;4.33;;
4963;SDS011;2497;47.410;9.740;2023-05-25T10:06:26;6.37;;;4.20;;
4963;SDS011;2497;47.410;9.740;2023-05-25T10:08:55;5.90;;;3.77;;
4963;SDS011;2497;47.410;9.740;2023-05-25T10:11:23;7.97;;;4.00;;
4963;SDS011;2497;47.410;9.740;2023-05-25T10:13:52;6.00;;;4.00;;
4963;SDS011;2497;47.410;9.740;2023-05-25T10:16:22;6.30;;;4.57;;
4963;SDS011;2497;47.410;9.740;2023-05-25T10:18:54;11.40;;;4.20;;
4963;SDS011;2497;47.410;9.740;2023-05-25T10:21:32;5.00;;;3.73;;
4963;SDS011;2497;47.410;9.740;2023-05-25T10:24:03;6.43;;;4.20;;
4963;SDS011;2497;47.410;9.740;2023-05-25T10:26:32;4.97;;;3.53;;
4963;SDS011;2497;47.410;9.740;2023-05-25T10:29:03;8.27;;;4.30;;
4963;SDS011;2497;47.410;9.740;2023-05-25T10:31:32;4.17;;;3.23;;
4963;SDS011;2497;47.410;9.740;2023-05-25T10:34:01;4.03;;;3.10;;
4963;SDS011;2497;47.410;9.740;2023-05-25T10:36:28;5.20;;;3.63;;
4963;SDS011;2497;47.410;9.740;2023-05-25T10:39:00;6.23;;;3.97;;
4963;SDS011;2497;47.410;9.740;2023-05-25T10:41:32;8.70;;;5.00;;
4963;SDS011;2497;47.410;9.740;2023-05-25T10:43:59;6.00;;;3.67;;
4963;SDS011;2497;47.410;9.740;2023-05-25T10:46:31;6.47;;;3.67;;
4963;SDS011;2497;47.410;9.740;2023-05-25T10:49:04;5.10;;;4.30;;
4963;SDS011;2497;47.410;9.740;2023-05-25T10:51:38;6.67;;;4.13;;
4963;SDS011;2497;47.410;9.740;2023-05-25T10:54:16;7.47;;;4.80;;
4963;SDS011;2497;47.410;9.740;2023-05-25T10:59:34;5.23;;;4.20;;
4963;SDS011;2497;47.410;9.740;2023-05-25T11:02:04;5.93;;;4.13;;
4963;SDS011;2497;47.410;9.740;2023-05-25T11:04:32;7.80;;;4.63;;
4963;SDS011;2497;47.410;9.740;2023-05-25T11:07:05;7.90;;;5.03;;
4963;SDS011;2497;47.410;9.740;2023-05-25T11:09:40;9.03;;;4.37;;
4963;SDS011;2497;47.410;9.740;2023-05-25T11:12:20;7.57;;;4.27;;
4963;SDS011;2497;47.410;9.740;2023-05-25T11:17:43;7.70;;;3.63;;
4963;SDS011;2497;47.410;9.740;2023-05-25T11:20:25;5.30;;;4.30;;
4963;SDS011;2497;47.410;9.740;2023-05-25T11:22:54;7.23;;;4.30;;
4963;SDS011;2497;47.410;9.740;2023-05-25T11:25:36;6.40;;;3.67;;
4963;SDS011;2497;47.410;9.740;2023-05-25T11:28:05;10.47;;;4.53;;
4963;SDS011;2497;47.410;9.740;2023-05-25T11:30:35;5.00;;;4.00;;
4963;SDS011;2497;47.410;9.740;2023-05-25T11:33:03;5.77;;;4.17;;
4963;SDS011;2497;47.410;9.740;2023-05-25T11:35:33;5.00;;;3.70;;
4963;SDS011;2497;47.410;9.740;2023-05-25T11:38:07;7.13;;;3.90;;
4963;SDS011;2497;47.410;9.740;2023-05-25T11:40:37;6.33;;;3.57;;
4963;SDS011;2497;47.410;9.740;2023-05-25T11:43:05;5.40;;;3.97;;
4963;SDS011;2497;47.410;9.740;2023-05-25T11:45:33;5.97;;;4.10;;
4963;SDS011;2497;47.410;9.740;2023-05-25T11:48:02;5.07;;;4.10;;
4963;SDS011;2497;47.410;9.740;2023-05-25T11:50:31;8.87;;;4.90;;
4963;SDS011;2497;47.410;9.740;2023-05-25T11:52:58;10.73;;;4.20;;
4963;SDS011;2497;47.410;9.740;2023-05-25T11:55:25;10.53;;;4.57;;
4963;SDS011;2497;47.410;9.740;2023-05-25T11:57:57;5.53;;;3.97;;
4963;SDS011;2497;47.410;9.740;2023-05-25T12:00:24;7.43;;;4.27;;
4963;SDS011;2497;47.410;9.740;2023-05-25T12:02:52;4.80;;;3.87;;
4963;SDS011;2497;47.410;9.740;2023-05-25T12:05:20;7.50;;;4.40;;
4963;SDS011;2497;47.410;9.740;2023-05-25T12:08:02;7.73;;;4.70;;
4963;SDS011;2497;47.410;9.740;2023-05-25T12:10:29;5.37;;;4.63;;
4963;SDS011;2497;47.410;9.740;2023-05-25T12:12:59;7.63;;;5.23;;
4963;SDS011;2497;47.410;9.740;2023-05-25T12:15:28;7.40;;;5.30;;
4963;SDS011;2497;47.410;9.740;2023-05-25T12:18:00;4.80;;;3.90;;
4963;SDS011;2497;47.410;9.740;2023-05-25T12:20:28;6.40;;;5.17;;
4963;SDS011;2497;47.410;9.740;2023-05-25T12:22:55;6.20;;;4.67;;
4963;SDS011;2497;47.410;9.740;2023-05-25T12:25:23;5.07;;;4.27;;
4963;SDS011;2497;47.410;9.740;2023-05-25T12:30:38;6.20;;;4.80;;
4963;SDS011;2497;47.410;9.740;2023-05-25T12:33:06;7.27;;;4.77;;
4963;SDS011;2497;47.410;9.740;2023-05-25T12:35:43;7.93;;;5.70;;
4963;SDS011;2497;47.410;9.740;2023-05-25T12:38:12;8.50;;;5.47;;
4963;SDS011;2497;47.410;9.740;2023-05-25T12:40:40;6.13;;;4.73;;
4963;SDS011;2497;47.410;9.740;2023-05-25T12:43:07;6.80;;;5.50;;
4963;SDS011;2497;47.410;9.740;2023-05-25T12:45:38;7.93;;;5.27;;
4963;SDS011;2497;47.410;9.740;2023-05-25T12:48:06;7.20;;;5.27;;
4963;SDS011;2497;47.410;9.740;2023-05-25T12:50:33;6.90;;;4.57;;
4963;SDS011;2497;47.410;9.740;2023-05-25T12:53:00;7.00;;;4.90;;
4963;SDS011;2497;47.410;9.740;2023-05-25T12:55:29;9.70;;;5.97;;
4963;SDS011;2497;47.410;9.740;2023-05-25T12:57:58;7.70;;;5.60;;
4963;SDS011;2497;47.410;9.740;2023-05-25T13:00:29;9.17;;;6.23;;
4963;SDS011;2497;47.410;9.740;2023-05-25T13:02:58;7.20;;;5.13;;
4963;SDS011;2497;47.410;9.740;2023-05-25T13:05:25;12.00;;;5.20;;
4963;SDS011;2497;47.410;9.740;2023-05-25T13:07:54;10.57;;;5.80;;
4963;SDS011;2497;47.410;9.740;2023-05-25T13:10:22;7.47;;;5.90;;
4963;SDS011;2497;47.410;9.740;2023-05-25T13:12:50;10.27;;;5.73;;
4963;SDS011;2497;47.410;9.740;2023-05-25T13:15:19;13.13;;;5.30;;
4963;SDS011;2497;47.410;9.740;2023-05-25T13:17:49;8.90;;;5.17;;
4963;SDS011;2497;47.410;9.740;2023-05-25T13:20:18;7.47;;;5.30;;
4963;SDS011;2497;47.410;9.740;2023-05-25T13:22:48;9.43;;;6.17;;
4963;SDS011;2497;47.410;9.740;2023-05-25T13:25:16;13.30;;;5.80;;
4963;SDS011;2497;47.410;9.740;2023-05-25T13:27:44;10.03;;;6.10;;
4963;SDS011;2497;47.410;9.740;2023-05-25T13:30:12;9.60;;;6.40;;
4963;SDS011;2497;47.410;9.740;2023-05-25T13:32:40;8.80;;;5.80;;
4963;SDS011;2497;47.410;9.740;2023-05-25T13:35:10;11.60;;;6.50;;
4963;SDS011;2497;47.410;9.740;2023-05-25T13:37:43;10.37;;;5.80;;
4963;SDS011;2497;47.410;9.740;2023-05-25T13:40:10;7.87;;;6.00;;
4963;SDS011;2497;47.410;9.740;2023-05-25T13:42:39;9.33;;;6.73;;
4963;SDS011;2497;47.410;9.740;2023-05-25T13:45:09;7.40;;;6.60;;
4963;SDS011;2497;47.410;9.740;2023-05-25T13:47:36;13.07;;;6.17;;
4963;SDS011;2497;47.410;9.740;2023-05-25T13:50:05;6.10;;;5.50;;
4963;SDS011;2497;47.410;9.740;2023-05-25T13:52:34;10.93;;;7.00;;
4963;SDS011;2497;47.410;9.740;2023-05-25T13:55:01;9.93;;;6.53;;
4963;SDS011;2497;47.410;9.740;2023-05-25T13:57:31;8.90;;;6.40;;
4963;SDS011;2497;47.410;9.740;2023-05-25T13:59:58;8.40;;;6.40;;
4963;SDS011;2497;47.410;9.740;2023-05-25T14:02:26;13.87;;;6.93;;
4963;SDS011;2497;47.410;9.740;2023-05-25T14:04:56;11.83;;;6.60;;
4963;SDS011;2497;47.410;9.740;2023-05-25T14:07:23;12.80;;;7.20;;
4963;SDS011;2497;47.410;9.740;2023-05-25T14:09:51;9.27;;;7.00;;
4963;SDS011;2497;47.410;9.740;2023-05-25T14:12:18;13.10;;;7.07;;
4963;SDS011;2497;47.410;9.740;2023-05-25T14:14:45;11.23;;;7.50;;
4963;SDS011;2497;47.410;9.740;2023-05-25T14:17:12;8.83;;;7.13;;
4963;SDS011;2497;47.410;9.740;2023-05-25T14:19:39;11.17;;;7.53;;
4963;SDS011;2497;47.410;9.740;2023-05-25T14:22:11;11.50;;;7.30;;
4963;SDS011;2497;47.410;9.740;2023-05-25T14:24:38;10.80;;;7.90;;
4963;SDS011;2497;47.410;9.740;2023-05-25T14:27:13;11.43;;;7.83;;
4963;SDS011;2497;47.410;9.740;2023-05-25T14:29:45;15.60;;;7.97;;
4963;SDS011;2497;47.410;9.740;2023-05-25T14:32:12;12.00;;;6.73;;
4963;SDS011;2497;47.410;9.740;2023-05-25T14:34:41;12.33;;;7.77;;
4963;SDS011;2497;47.410;9.740;2023-05-25T14:37:10;11.67;;;7.50;;
4963;SDS011;2497;47.410;9.740;2023-05-25T14:39:37;10.00;;;6.93;;
4963;SDS011;2497;47.410;9.740;2023-05-25T14:42:04;11.87;;;7.60;;
4963;SDS011;2497;47.410;9.740;2023-05-25T14:44:33;11.47;;;7.43;;
4963;SDS011;2497;47.410;9.740;2023-05-25T14:47:00;11.33;;;7.70;;
4963;SDS011;2497;47.410;9.740;2023-05-25T14:49:29;14.27;;;9.03;;
4963;SDS011;2497;47.410;9.740;2023-05-25T14:51:56;15.57;;;8.43;;
4963;SDS011;2497;47.410;9.740;2023-05-25T14:54:23;16.20;;;9.07;;
4963;SDS011;2497;47.410;9.740;2023-05-25T14:56:50;17.40;;;9.70;;
4963;SDS011;2497;47.410;9.740;2023-05-25T14:59:17;18.70;;;10.87;;
4963;SDS011;2497;47.410;9.740;2023-05-25T15:01:46;17.50;;;9.23;;
4963;SDS011;2497;47.410;9.740;2023-05-25T15:04:13;28.90;;;9.90;;
4963;SDS011;2497;47.410;9.740;2023-05-25T15:06:40;20.20;;;10.57;;
4963;SDS011;2497;47.410;9.740;2023-05-25T15:09:08;18.07;;;10.53;;
4963;SDS011;2497;47.410;9.740;2023-05-25T15:11:37;20.47;;;10.73;;
4963;SDS011;2497;47.410;9.740;2023-05-25T15:14:06;19.63;;;11.47;;
4963;SDS011;2497;47.410;9.740;2023-05-25T15:16:33;23.43;;;11.87;;
4963;SDS011;2497;47.410;9.740;2023-05-25T15:19:04;18.73;;;10.60;;